sensor_id;sensor_type;location;lat;lon;timestamp;pressure;altitude;pressure_sealevel;temperature;humidity
73896;BME280;73986;50.770;6.080;2024-01-06T00:00:28;98210.56;;;5.93;72.04
73896;BME280;73986;50.770;6.080;2024-01-06T00:10:31;98210.44;;;5.94;72.18
73896;BME280;73986;50.770;6.080;2024-01-06T00:20:33;98219.16;;;5.83;72.17
73896;BME280;73986;50.770;6.080;2024-01-06T00:30:35;98231.22;;;5.96;72.47
73896;BME280;73986;50.770;6.080;2024-01-06T00:40:37;98231.09;;;5.97;72.46
73896;BME280;73986;50.770;6.080;2024-01-06T00:50:40;98248.19;;;6.13;72.19
73896;BME280;73986;50.770;6.080;2024-01-06T01:00:42;98249.63;;;6.06;72.50
73896;BME280;73986;50.770;6.080;2024-01-06T01:10:45;98252.84;;;6.10;72.36
73896;BME280;73986;50.770;6.080;2024-01-06T01:20:46;98246.75;;;6.20;72.39
73896;BME280;73986;50.770;6.080;2024-01-06T01:30:49;98262.66;;;6.29;72.56
73896;BME280;73986;50.770;6.080;2024-01-06T01:40:51;98277.06;;;6.12;72.72
73896;BME280;73986;50.770;6.080;2024-01-06T01:50:54;98289.16;;;6.24;72.73
73896;BME280;73986;50.770;6.080;2024-01-06T02:00:56;98299.13;;;6.19;72.68
73896;BME280;73986;50.770;6.080;2024-01-06T02:11:04;98299.25;;;6.29;72.74
73896;BME280;73986;50.770;6.080;2024-01-06T02:21:09;98306.03;;;6.31;72.58
73896;BME280;73986;50.770;6.080;2024-01-06T02:31:12;98318.63;;;6.26;73.00
73896;BME280;73986;50.770;6.080;2024-01-06T02:41:14;98331.66;;;6.15;73.05
73896;BME280;73986;50.770;6.080;2024-01-06T02:51:17;98349.63;;;6.19;73.21
73896;BME280;73986;50.770;6.080;2024-01-06T03:01:18;98345.81;;;6.12;73.03
73896;BME280;73986;50.770;6.080;2024-01-06T03:11:21;98349.94;;;6.15;73.43
73896;BME280;73986;50.770;6.080;2024-01-06T03:21:23;98364.09;;;6.12;73.44
73896;BME280;73986;50.770;6.080;2024-01-06T03:31:26;98372.00;;;5.99;73.84
73896;BME280;73986;50.770;6.080;2024-01-06T03:41:28;98370.47;;;5.96;73.76
73896;BME280;73986;50.770;6.080;2024-01-06T03:51:31;98383.41;;;5.98;73.88
73896;BME280;73986;50.770;6.080;2024-01-06T04:01:32;98386.13;;;5.96;73.81
73896;BME280;73986;50.770;6.080;2024-01-06T04:11:37;98400.72;;;5.88;73.60
73896;BME280;73986;50.770;6.080;2024-01-06T04:21:39;98408.31;;;5.79;74.68
73896;BME280;73986;50.770;6.080;2024-01-06T04:31:41;98417.16;;;5.65;73.84
73896;BME280;73986;50.770;6.080;2024-01-06T04:41:43;98422.13;;;5.57;74.38
73896;BME280;73986;50.770;6.080;2024-01-06T04:51:46;98425.75;;;5.43;73.98
73896;BME280;73986;50.770;6.080;2024-01-06T05:01:48;98437.50;;;5.13;74.64
73896;BME280;73986;50.770;6.080;2024-01-06T05:11:53;98436.59;;;5.01;74.64
73896;BME280;73986;50.770;6.080;2024-01-06T05:21:54;98461.53;;;4.92;74.19
73896;BME280;73986;50.770;6.080;2024-01-06T05:31:57;98474.16;;;4.98;74.07
73896;BME280;73986;50.770;6.080;2024-01-06T05:41:59;98481.47;;;4.93;74.23
73896;BME280;73986;50.770;6.080;2024-01-06T05:52:02;98494.41;;;4.94;73.84
73896;BME280;73986;50.770;6.080;2024-01-06T06:02:04;98509.53;;;4.89;73.88
73896;BME280;73986;50.770;6.080;2024-01-06T06:12:07;98517.59;;;4.86;73.84
73896;BME280;73986;50.770;6.080;2024-01-06T06:22:09;98533.41;;;4.83;73.80
73896;BME280;73986;50.770;6.080;2024-01-06T06:32:12;98547.94;;;4.74;73.92
73896;BME280;73986;50.770;6.080;2024-01-06T06:42:14;98566.38;;;4.71;73.94
73896;BME280;73986;50.770;6.080;2024-01-06T06:52:17;98584.00;;;4.54;74.00
73896;BME280;73986;50.770;6.080;2024-01-06T07:02:18;98598.78;;;4.41;74.62
73896;BME280;73986;50.770;6.080;2024-01-06T07:12:21;98614.28;;;4.29;74.68
73896;BME280;73986;50.770;6.080;2024-01-06T07:22:23;98630.19;;;4.24;74.25
73896;BME280;73986;50.770;6.080;2024-01-06T07:32:26;98647.53;;;4.25;74.23
73896;BME280;73986;50.770;6.080;2024-01-06T07:42:28;98667.19;;;4.17;74.35
73896;BME280;73986;50.770;6.080;2024-01-06T07:52:31;98689.94;;;3.85;75.06
73896;BME280;73986;50.770;6.080;2024-01-06T08:02:33;98704.66;;;3.72;75.12
73896;BME280;73986;50.770;6.080;2024-01-06T08:12:36;98716.84;;;3.71;74.96
73896;BME280;73986;50.770;6.080;2024-01-06T08:22:37;98728.09;;;3.72;74.68
73896;BME280;73986;50.770;6.080;2024-01-06T08:32:41;98738.94;;;3.79;74.78
73896;BME280;73986;50.770;6.080;2024-01-06T08:42:42;98754.56;;;3.93;74.19
73896;BME280;73986;50.770;6.080;2024-01-06T08:52:46;98774.56;;;3.93;74.31
73896;BME280;73986;50.770;6.080;2024-01-06T09:02:47;98789.81;;;3.84;74.24
73896;BME280;73986;50.770;6.080;2024-01-06T09:12:51;98804.78;;;3.95;74.26
73896;BME280;73986;50.770;6.080;2024-01-06T09:22:52;98817.88;;;3.79;74.44
73896;BME280;73986;50.770;6.080;2024-01-06T09:32:55;98841.13;;;3.82;74.35
73896;BME280;73986;50.770;6.080;2024-01-06T09:42:58;98841.97;;;3.83;74.26
73896;BME280;73986;50.770;6.080;2024-01-06T09:53:02;98869.56;;;3.85;74.18
73896;BME280;73986;50.770;6.080;2024-01-06T10:03:12;98878.22;;;3.86;74.16
73896;BME280;73986;50.770;6.080;2024-01-06T10:13:17;98882.47;;;3.87;74.16
73896;BME280;73986;50.770;6.080;2024-01-06T10:23:19;98892.91;;;3.87;74.22
73896;BME280;73986;50.770;6.080;2024-01-06T10:33:25;98891.41;;;3.83;74.23
73896;BME280;73986;50.770;6.080;2024-01-06T10:43:27;98887.06;;;3.98;73.99
73896;BME280;73986;50.770;6.080;2024-01-06T10:53:31;98886.94;;;3.70;74.53
73896;BME280;73986;50.770;6.080;2024-01-06T11:03:36;98893.34;;;3.64;74.62
73896;BME280;73986;50.770;6.080;2024-01-06T11:13:41;98895.09;;;3.64;74.55
73896;BME280;73986;50.770;6.080;2024-01-06T11:23:45;98906.56;;;3.91;74.33
73896;BME280;73986;50.770;6.080;2024-01-06T11:33:51;98905.13;;;4.16;74.12
73896;BME280;73986;50.770;6.080;2024-01-06T11:43:53;98893.28;;;4.24;73.97
73896;BME280;73986;50.770;6.080;2024-01-06T11:54:03;98888.59;;;4.59;73.98
73896;BME280;73986;50.770;6.080;2024-01-06T12:04:07;98901.81;;;4.56;73.73
73896;BME280;73986;50.770;6.080;2024-01-06T12:14:21;98906.56;;;4.49;74.48
73896;BME280;73986;50.770;6.080;2024-01-06T12:24:39;98898.56;;;4.52;74.09
73896;BME280;73986;50.770;6.080;2024-01-06T12:45:28;98905.38;;;4.25;74.20
73896;BME280;73986;50.770;6.080;2024-01-06T12:55:32;98895.34;;;4.05;74.24
73896;BME280;73986;50.770;6.080;2024-01-06T13:05:36;98903.78;;;3.94;74.31
73896;BME280;73986;50.770;6.080;2024-01-06T13:15:42;98914.50;;;4.04;73.79
73896;BME280;73986;50.770;6.080;2024-01-06T13:25:49;98932.69;;;3.89;74.51
73896;BME280;73986;50.770;6.080;2024-01-06T13:35:54;98942.78;;;4.10;73.56
73896;BME280;73986;50.770;6.080;2024-01-06T13:46:02;98946.38;;;3.47;75.09
73896;BME280;73986;50.770;6.080;2024-01-06T13:56:26;98955.44;;;3.71;74.07
73896;BME280;73986;50.770;6.080;2024-01-06T14:07:01;98958.84;;;3.57;74.43
73896;BME280;73986;50.770;6.080;2024-01-06T14:17:05;98984.72;;;3.44;74.56
73896;BME280;73986;50.770;6.080;2024-01-06T14:27:24;98993.03;;;3.02;75.04
73896;BME280;73986;50.770;6.080;2024-01-06T14:37:26;99011.00;;;2.90;75.24
73896;BME280;73986;50.770;6.080;2024-01-06T14:47:29;99026.00;;;2.85;74.88
73896;BME280;73986;50.770;6.080;2024-01-06T14:57:32;99045.59;;;2.75;75.47
73896;BME280;73986;50.770;6.080;2024-01-06T15:07:35;99055.31;;;2.71;74.73
73896;BME280;73986;50.770;6.080;2024-01-06T15:17:37;99073.16;;;3.11;74.54
73896;BME280;73986;50.770;6.080;2024-01-06T15:27:40;99075.34;;;3.19;74.03
73896;BME280;73986;50.770;6.080;2024-01-06T15:37:42;99083.91;;;3.37;73.40
73896;BME280;73986;50.770;6.080;2024-01-06T15:47:45;99103.38;;;2.62;74.97
73896;BME280;73986;50.770;6.080;2024-01-06T15:57:47;99116.44;;;2.61;75.37
73896;BME280;73986;50.770;6.080;2024-01-06T16:07:50;99124.41;;;2.75;74.84
73896;BME280;73986;50.770;6.080;2024-01-06T16:17:52;99133.13;;;2.57;75.20
73896;BME280;73986;50.770;6.080;2024-01-06T16:27:55;99137.09;;;2.28;75.41
73896;BME280;73986;50.770;6.080;2024-01-06T16:37:57;99144.34;;;2.39;75.21
73896;BME280;73986;50.770;6.080;2024-01-06T16:48:01;99150.91;;;2.64;74.78
73896;BME280;73986;50.770;6.080;2024-01-06T16:58:03;99159.16;;;2.90;74.26
73896;BME280;73986;50.770;6.080;2024-01-06T17:08:07;99166.34;;;2.85;74.25
73896;BME280;73986;50.770;6.080;2024-01-06T17:18:09;99173.47;;;2.82;74.39
73896;BME280;73986;50.770;6.080;2024-01-06T17:28:12;99183.78;;;2.83;74.62
73896;BME280;73986;50.770;6.080;2024-01-06T17:38:13;99196.16;;;2.78;74.57
73896;BME280;73986;50.770;6.080;2024-01-06T17:48:16;99203.34;;;2.90;74.01
73896;BME280;73986;50.770;6.080;2024-01-06T17:58:19;99212.28;;;3.02;74.12
73896;BME280;73986;50.770;6.080;2024-01-06T18:08:22;99213.50;;;2.95;74.47
73896;BME280;73986;50.770;6.080;2024-01-06T18:18:23;99231.69;;;2.95;74.12
73896;BME280;73986;50.770;6.080;2024-01-06T18:28:26;99234.91;;;2.83;74.62
73896;BME280;73986;50.770;6.080;2024-01-06T18:38:28;99238.19;;;2.86;74.52
73896;BME280;73986;50.770;6.080;2024-01-06T18:48:31;99245.78;;;2.73;74.99
73896;BME280;73986;50.770;6.080;2024-01-06T18:58:33;99245.53;;;2.78;74.64
73896;BME280;73986;50.770;6.080;2024-01-06T19:08:36;99250.97;;;2.36;74.95
73896;BME280;73986;50.770;6.080;2024-01-06T19:18:38;99256.63;;;2.08;75.34
73896;BME280;73986;50.770;6.080;2024-01-06T19:28:41;99274.66;;;1.91;75.47
73896;BME280;73986;50.770;6.080;2024-01-06T19:38:43;99276.28;;;1.94;75.33
73896;BME280;73986;50.770;6.080;2024-01-06T19:48:46;99283.06;;;2.16;75.01
73896;BME280;73986;50.770;6.080;2024-01-06T19:58:48;99292.63;;;1.96;75.33
73896;BME280;73986;50.770;6.080;2024-01-06T20:08:51;99311.00;;;2.11;75.04
73896;BME280;73986;50.770;6.080;2024-01-06T20:18:53;99307.63;;;2.47;74.70
73896;BME280;73986;50.770;6.080;2024-01-06T20:28:56;99297.91;;;2.70;74.32
73896;BME280;73986;50.770;6.080;2024-01-06T20:38:59;99300.94;;;2.61;74.43
73896;BME280;73986;50.770;6.080;2024-01-06T20:49:04;99300.94;;;2.61;74.83
73896;BME280;73986;50.770;6.080;2024-01-06T20:59:07;99301.84;;;2.60;74.84
73896;BME280;73986;50.770;6.080;2024-01-06T21:09:10;99310.28;;;2.65;74.64
73896;BME280;73986;50.770;6.080;2024-01-06T21:19:11;99305.06;;;2.65;74.43
73896;BME280;73986;50.770;6.080;2024-01-06T21:29:14;99311.72;;;2.14;75.36
73896;BME280;73986;50.770;6.080;2024-01-06T21:39:16;99320.69;;;2.46;74.91
73896;BME280;73986;50.770;6.080;2024-01-06T21:49:19;99324.00;;;2.49;74.64
73896;BME280;73986;50.770;6.080;2024-01-06T21:59:21;99338.78;;;2.47;74.41
73896;BME280;73986;50.770;6.080;2024-01-06T22:09:24;99350.88;;;2.29;74.71
73896;BME280;73986;50.770;6.080;2024-01-06T22:19:26;99349.47;;;2.22;74.83
73896;BME280;73986;50.770;6.080;2024-01-06T22:29:29;99353.25;;;2.14;74.47
73896;BME280;73986;50.770;6.080;2024-01-06T22:39:31;99358.19;;;2.21;74.77
73896;BME280;73986;50.770;6.080;2024-01-06T22:49:34;99362.94;;;2.11;74.46
73896;BME280;73986;50.770;6.080;2024-01-06T22:59:36;99375.28;;;2.25;74.53
73896;BME280;73986;50.770;6.080;2024-01-06T23:09:39;99379.22;;;2.14;74.45
73896;BME280;73986;50.770;6.080;2024-01-06T23:19:40;99378.97;;;2.21;74.00
73896;BME280;73986;50.770;6.080;2024-01-06T23:29:43;99378.31;;;2.15;74.60
73896;BME280;73986;50.770;6.080;2024-01-06T23:39:45;99390.47;;;2.34;74.10
73896;BME280;73986;50.770;6.080;2024-01-06T23:49:48;99395.22;;;2.05;74.54
73896;BME280;73986;50.770;6.080;2024-01-06T23:59:50;99398.44;;;2.10;74.20
